Time;durP1;ratioP1;P1;durP2;ratioP2;P2;SDS_P1;SDS_P2;PMS_P1;PMS_P2;Temp;Humidity;BMP_temperature;BMP_pressure;BME280_temperature;BME280_humidity;BME280_pressure;Samples;Min_cycle;Max_cycle;Signal;HPM_P1;HPM_P2
2022/04/24 00:00:37;;;;;;;0.00;0.00;;;9.40;99.90;;;;;;5043057;28;20310;-63
2022/04/24 00:03:03;;;;;;;0.00;0.00;;;9.30;99.90;;;;;;5042805;28;20049;-63
2022/04/24 00:05:28;;;;;;;0.00;0.00;;;9.30;99.90;;;;;;5041008;28;20544;-61
2022/04/24 00:07:54;;;;;;;0.00;0.00;;;9.30;99.90;;;;;;5042719;28;20123;-62
2022/04/24 00:10:20;;;;;;;0.00;0.00;;;9.20;99.90;;;;;;5042095;28;20116;-62
2022/04/24 00:12:46;;;;;;;0.00;0.00;;;9.20;99.90;;;;;;5043074;28;20049;-62
2022/04/24 00:15:12;;;;;;;0.00;0.00;;;9.10;99.90;;;;;;5042076;28;20049;-62
2022/04/24 00:17:38;;;;;;;0.00;0.00;;;9.40;99.90;;;;;;5042524;28;20041;-63
2022/04/24 00:20:04;;;;;;;0.00;0.00;;;9.00;99.90;;;;;;5042337;28;20048;-62
2022/04/24 00:22:29;;;;;;;0.00;0.00;;;9.00;99.90;;;;;;5041401;28;20037;-63
2022/04/24 00:24:55;;;;;;;0.00;0.00;;;8.90;99.90;;;;;;5057244;28;20126;-62
2022/04/24 00:27:21;;;;;;;0.00;0.00;;;8.90;99.90;;;;;;5042139;28;20072;-62
2022/04/24 00:29:46;;;;;;;0.00;0.00;;;8.80;99.90;;;;;;5042407;28;20402;-63
2022/04/24 00:32:13;;;;;;;0.00;0.00;;;8.70;99.90;;;;;;5041348;28;20033;-62
2022/04/24 00:34:38;;;;;;;0.00;0.00;;;8.70;99.90;;;;;;5042324;28;20474;-62
2022/04/24 00:37:05;;;;;;;0.00;0.00;;;8.70;99.90;;;;;;5041616;28;20036;-63
2022/04/24 00:39:30;;;;;;;0.00;0.00;;;8.60;99.90;;;;;;5041610;28;20114;-62
2022/04/24 00:41:56;;;;;;;0.00;0.00;;;8.60;99.90;;;;;;5041508;28;20053;-62
2022/04/24 00:44:22;;;;;;;0.00;0.00;;;8.60;99.90;;;;;;5041271;28;20132;-62
2022/04/24 00:46:55;;;;;;;0.00;0.00;;;8.60;99.90;;;;;;5052756;28;20059;-62
2022/04/24 00:49:21;;;;;;;0.00;0.00;;;8.60;99.90;;;;;;5040850;28;20124;-62
2022/04/24 00:51:47;;;;;;;0.00;0.00;;;8.60;99.90;;;;;;5041052;28;20124;-62
2022/04/24 00:54:13;;;;;;;0.00;0.00;;;8.50;99.90;;;;;;5041562;28;20165;-63
2022/04/24 00:56:41;;;;;;;0.00;0.00;;;8.50;99.90;;;;;;5042259;28;20041;-63
2022/04/24 00:59:09;;;;;;;0.00;0.00;;;8.40;99.90;;;;;;5041573;28;20040;-62
2022/04/24 01:01:36;;;;;;;0.00;0.00;;;8.40;99.90;;;;;;5041387;28;20412;-63
2022/04/24 01:04:05;;;;;;;0.00;0.00;;;8.40;99.90;;;;;;5041743;28;20603;-62
2022/04/24 01:06:42;;;;;;;0.00;0.00;;;8.40;99.90;;;;;;5039540;28;20048;-64
2022/04/24 01:09:18;;;;;;;0.00;0.00;;;8.10;99.90;;;;;;5041762;28;20546;-62
2022/04/24 01:11:51;;;;;;;0.00;0.00;;;8.30;99.90;;;;;;5041235;28;20080;-62
2022/04/24 01:14:19;;;;;;;0.00;0.00;;;8.30;99.90;;;;;;5041106;28;20067;-62
2022/04/24 01:16:46;;;;;;;0.32;0.25;;;8.20;99.90;;;;;;5039839;28;20392;-62
2022/04/24 01:19:13;;;;;;;0.00;0.00;;;8.60;99.90;;;;;;5040645;28;20407;-63
2022/04/24 01:21:41;;;;;;;0.00;0.00;;;8.20;99.90;;;;;;5041651;28;20766;-63
2022/04/24 01:24:08;;;;;;;0.00;0.00;;;8.30;99.90;;;;;;5041857;28;20052;-62
2022/04/24 01:26:34;;;;;;;0.00;0.00;;;8.10;99.90;;;;;;5041012;28;20091;-63
2022/04/24 01:29:01;;;;;;;0.30;0.20;;;8.10;99.90;;;;;;5040717;28;20087;-62
2022/04/24 01:31:27;;;;;;;0.47;0.30;;;8.10;99.90;;;;;;5040881;28;20045;-63
2022/04/24 01:33:53;;;;;;;0.30;0.10;;;8.10;99.90;;;;;;5041391;28;20087;-63
2022/04/24 01:36:18;;;;;;;0.00;0.00;;;8.00;99.90;;;;;;5039572;28;20041;-62
2022/04/24 01:38:44;;;;;;;0.00;0.00;;;7.90;99.90;;;;;;5040878;28;20118;-62
2022/04/24 01:41:10;;;;;;;0.00;0.00;;;7.90;99.90;;;;;;5039579;28;20063;-62
2022/04/24 01:43:38;;;;;;;0.00;0.00;;;7.90;99.90;;;;;;5041537;28;20048;-62
2022/04/24 01:46:05;;;;;;;0.00;0.00;;;7.90;99.90;;;;;;5045191;28;20040;-62
2022/04/24 01:48:34;;;;;;;0.00;0.00;;;8.00;99.90;;;;;;5046212;28;20045;-62
2022/04/24 01:51:01;;;;;;;0.00;0.00;;;8.00;99.90;;;;;;5040015;28;20055;-62
2022/04/24 01:53:28;;;;;;;0.00;0.00;;;8.10;99.90;;;;;;5039841;28;20041;-62
2022/04/24 01:55:57;;;;;;;0.00;0.00;;;8.00;99.90;;;;;;5040879;28;20048;-62
2022/04/24 01:58:24;;;;;;;0.00;0.00;;;8.10;99.90;;;;;;5039302;28;20049;-61
2022/04/24 02:00:50;;;;;;;0.00;0.00;;;8.10;99.90;;;;;;5040945;28;20045;-61
2022/04/24 02:03:16;;;;;;;0.00;0.00;;;8.00;99.90;;;;;;5039623;28;20063;-61
2022/04/24 02:05:42;;;;;;;0.00;0.00;;;8.10;99.90;;;;;;5040175;28;20049;-62
2022/04/24 02:08:08;;;;;;;0.00;0.00;;;8.00;99.90;;;;;;5041347;28;20067;-62
2022/04/24 02:10:33;;;;;;;0.00;0.00;;;8.00;99.90;;;;;;5039547;28;20081;-62
2022/04/24 02:12:59;;;;;;;0.00;0.00;;;8.00;99.90;;;;;;5040805;28;20135;-62
2022/04/24 02:15:25;;;;;;;0.00;0.00;;;8.00;99.90;;;;;;5040031;28;20037;-61
2022/04/24 02:17:50;;;;;;;0.00;0.00;;;7.90;99.90;;;;;;5040711;28;20111;-62
2022/04/24 02:20:16;;;;;;;0.00;0.00;;;7.90;99.90;;;;;;5038800;28;20045;-61
2022/04/24 02:22:41;;;;;;;0.00;0.00;;;7.90;99.90;;;;;;5039733;28;20140;-61
2022/04/24 02:25:07;;;;;;;0.00;0.00;;;8.00;99.90;;;;;;5040114;28;20480;-62
2022/04/24 02:27:34;;;;;;;0.00;0.00;;;7.80;99.90;;;;;;5039950;28;20072;-62
2022/04/24 02:30:00;;;;;;;0.00;0.00;;;7.80;99.90;;;;;;5039775;28;20044;-62
2022/04/24 02:32:26;;;;;;;0.00;0.00;;;7.80;99.90;;;;;;5040182;28;20041;-62
2022/04/24 02:34:52;;;;;;;0.00;0.00;;;7.70;99.90;;;;;;5040656;28;20033;-62
2022/04/24 02:37:17;;;;;;;0.00;0.00;;;7.70;99.90;;;;;;5038745;28;20049;-61
2022/04/24 02:39:43;;;;;;;0.00;0.00;;;7.60;99.90;;;;;;5040328;28;20090;-62
2022/04/24 02:42:09;;;;;;;0.00;0.00;;;7.60;99.90;;;;;;5040657;28;20036;-61
2022/04/24 02:44:34;;;;;;;0.10;0.10;;;7.60;99.90;;;;;;5039100;28;20052;-62
2022/04/24 02:47:01;;;;;;;0.00;0.00;;;7.50;99.90;;;;;;5050982;28;20040;-62
2022/04/24 02:49:26;;;;;;;0.00;0.00;;;7.50;99.90;;;;;;5039904;28;20045;-61
2022/04/24 02:51:52;;;;;;;0.00;0.00;;;7.50;99.90;;;;;;5039788;28;20041;-63
2022/04/24 02:54:17;;;;;;;0.00;0.00;;;6.90;99.90;;;;;;5040107;28;20479;-62
2022/04/24 02:56:43;;;;;;;0.00;0.00;;;7.40;99.90;;;;;;5039704;28;20531;-62
2022/04/24 02:59:09;;;;;;;0.00;0.00;;;7.40;99.90;;;;;;5039412;28;20041;-61
2022/04/24 03:01:35;;;;;;;0.00;0.00;;;7.40;99.90;;;;;;5040485;28;20148;-62
2022/04/24 03:04:01;;;;;;;0.00;0.00;;;7.30;99.90;;;;;;5042978;28;20559;-62
2022/04/24 03:06:26;;;;;;;0.00;0.00;;;7.30;99.90;;;;;;5042710;28;20073;-61
2022/04/24 03:08:52;;;;;;;0.00;0.00;;;7.30;99.90;;;;;;5043929;28;20376;-62
2022/04/24 03:11:18;;;;;;;0.00;0.00;;;7.30;99.90;;;;;;5043368;28;20090;-61
2022/04/24 03:13:43;;;;;;;0.00;0.00;;;7.30;99.90;;;;;;5043083;28;20550;-62
2022/04/24 03:16:09;;;;;;;0.00;0.00;;;7.30;99.90;;;;;;5044109;28;20119;-62
2022/04/24 03:18:35;;;;;;;0.00;0.00;;;7.30;99.90;;;;;;5043874;28;20119;-61
2022/04/24 03:21:01;;;;;;;0.00;0.00;;;7.30;99.90;;;;;;5042850;28;20128;-62
2022/04/24 03:23:27;;;;;;;0.00;0.00;;;7.20;99.90;;;;;;5042536;28;20498;-62
2022/04/24 03:25:52;;;;;;;0.00;0.00;;;7.30;99.90;;;;;;5043523;28;20140;-62
2022/04/24 03:28:18;;;;;;;0.00;0.00;;;7.20;99.90;;;;;;5043139;28;20033;-61
2022/04/24 03:30:44;;;;;;;0.00;0.00;;;7.20;99.90;;;;;;5042869;28;20483;-61
2022/04/24 03:33:10;;;;;;;0.05;0.05;;;7.20;99.90;;;;;;5043153;28;20052;-61
2022/04/24 03:35:36;;;;;;;0.00;0.00;;;7.20;99.90;;;;;;5042764;28;20450;-62
2022/04/24 03:38:03;;;;;;;0.00;0.00;;;7.20;99.90;;;;;;5058841;28;20069;-62
2022/04/24 03:40:28;;;;;;;0.00;0.00;;;7.30;99.90;;;;;;5042317;28;20554;-62
2022/04/24 03:42:54;;;;;;;0.00;0.00;;;7.60;99.90;;;;;;5042980;28;20083;-62
2022/04/24 03:45:20;;;;;;;0.00;0.00;;;7.20;99.90;;;;;;5045034;28;20045;-62
2022/04/24 03:47:47;;;;;;;0.00;0.00;;;7.20;99.90;;;;;;5050327;28;20124;-62
2022/04/24 03:50:13;;;;;;;0.00;0.00;;;7.10;99.90;;;;;;5042188;28;20045;-61
2022/04/24 03:52:39;;;;;;;0.00;0.00;;;7.10;99.90;;;;;;5043361;28;20443;-62
2022/04/24 03:55:06;;;;;;;0.00;0.00;;;7.10;99.90;;;;;;5043149;28;20077;-64
2022/04/24 03:57:31;;;;;;;0.00;0.00;;;7.00;99.90;;;;;;5041989;28;20049;-62
2022/04/24 03:59:57;;;;;;;0.00;0.00;;;7.00;99.90;;;;;;5042984;28;20119;-63
2022/04/24 04:02:23;;;;;;;0.00;0.00;;;7.00;99.90;;;;;;5042338;28;20060;-62
2022/04/24 04:04:49;;;;;;;0.00;0.00;;;7.00;99.90;;;;;;5042390;28;20091;-62
2022/04/24 04:07:14;;;;;;;0.00;0.00;;;7.00;99.90;;;;;;5041552;28;20075;-61
2022/04/24 04:09:40;;;;;;;0.00;0.00;;;7.00;99.90;;;;;;5042517;28;20171;-61
2022/04/24 04:12:07;;;;;;;0.00;0.00;;;6.90;99.90;;;;;;5043216;28;20045;-62
2022/04/24 04:14:32;;;;;;;0.00;0.00;;;6.90;99.90;;;;;;5041330;28;20788;-62
2022/04/24 04:16:58;;;;;;;0.00;0.00;;;6.90;99.90;;;;;;5040356;28;20071;-62
2022/04/24 04:19:24;;;;;;;0.00;0.00;;;6.80;99.90;;;;;;5041798;28;20056;-62
2022/04/24 04:21:49;;;;;;;0.00;0.00;;;6.80;99.90;;;;;;5041826;28;20060;-65
2022/04/24 04:24:15;;;;;;;0.00;0.00;;;6.80;99.90;;;;;;5041645;28;20542;-64
2022/04/24 04:26:41;;;;;;;0.00;0.00;;;6.90;99.90;;;;;;5041168;28;20460;-61
2022/04/24 04:29:06;;;;;;;0.00;0.00;;;6.80;99.90;;;;;;5042816;28;20140;-63
2022/04/24 04:31:32;;;;;;;0.00;0.00;;;6.90;99.90;;;;;;5041951;28;20048;-61
2022/04/24 04:33:57;;;;;;;0.00;0.00;;;6.80;99.90;;;;;;5041688;28;20045;-62
2022/04/24 04:36:23;;;;;;;0.00;0.00;;;6.80;99.90;;;;;;5041167;28;20435;-62
2022/04/24 04:38:49;;;;;;;0.00;0.00;;;6.80;99.90;;;;;;5042234;28;20037;-62
2022/04/24 04:41:15;;;;;;;0.00;0.00;;;6.90;99.90;;;;;;5041360;28;20036;-61
2022/04/24 04:43:40;;;;;;;0.00;0.00;;;6.90;99.90;;;;;;5040536;28;20170;-62
2022/04/24 04:46:06;;;;;;;0.00;0.00;;;6.90;99.90;;;;;;5047760;28;20040;-62
2022/04/24 04:48:31;;;;;;;0.00;0.00;;;7.00;99.90;;;;;;5047353;28;20123;-62
2022/04/24 04:50:57;;;;;;;0.00;0.00;;;7.00;99.90;;;;;;5041037;28;20037;-63
2022/04/24 04:53:23;;;;;;;0.00;0.00;;;7.00;99.90;;;;;;5041485;28;20106;-62
2022/04/24 04:55:49;;;;;;;0.00;0.00;;;7.00;99.90;;;;;;5041820;28;20053;-62
2022/04/24 04:58:15;;;;;;;0.00;0.00;;;7.00;99.90;;;;;;5039994;28;20079;-62
2022/04/24 05:00:41;;;;;;;0.00;0.00;;;7.10;99.90;;;;;;5041323;28;20045;-62
2022/04/24 05:03:07;;;;;;;0.00;0.00;;;7.10;99.90;;;;;;5042126;28;20060;-62
2022/04/24 05:05:33;;;;;;;0.00;0.00;;;7.10;99.90;;;;;;5040632;28;20515;-62
2022/04/24 05:07:58;;;;;;;0.00;0.00;;;7.20;99.90;;;;;;5041332;28;20048;-62
2022/04/24 05:10:24;;;;;;;0.47;0.47;;;7.20;99.90;;;;;;5040958;28;20699;-61
2022/04/24 05:12:50;;;;;;;0.00;0.00;;;8.20;99.90;;;;;;5041793;28;20423;-62
2022/04/24 05:15:16;;;;;;;0.00;0.00;;;7.30;99.90;;;;;;5041378;28;20467;-61
2022/04/24 05:17:44;;;;;;;0.00;0.00;;;7.40;99.90;;;;;;5040693;28;20049;-66
2022/04/24 05:20:11;;;;;;;0.00;0.00;;;7.50;99.90;;;;;;5056200;28;20048;-64
2022/04/24 05:22:38;;;;;;;0.00;0.00;;;7.50;99.90;;;;;;5041327;28;20045;-65
2022/04/24 05:25:05;;;;;;;0.00;0.00;;;7.50;99.90;;;;;;5040197;28;20051;-63
2022/04/24 05:27:30;;;;;;;0.00;0.00;;;7.50;99.90;;;;;;5039532;28;20056;-62
2022/04/24 05:29:56;;;;;;;0.00;0.00;;;7.70;99.90;;;;;;5041236;28;20044;-62
2022/04/24 05:32:22;;;;;;;0.00;0.00;;;7.70;99.90;;;;;;5040789;28;20051;-62
2022/04/24 05:34:48;;;;;;;0.13;0.13;;;7.70;99.90;;;;;;5039756;28;20492;-63
2022/04/24 05:37:13;;;;;;;0.00;0.00;;;7.80;99.90;;;;;;5040777;28;20048;-61
2022/04/24 05:39:39;;;;;;;0.00;0.00;;;7.80;99.90;;;;;;5041278;28;20059;-62
2022/04/24 05:42:05;;;;;;;0.47;0.10;;;7.80;99.90;;;;;;5041023;28;20470;-62
2022/04/24 05:44:31;;;;;;;0.00;0.00;;;7.90;99.90;;;;;;5038417;28;20041;-62
2022/04/24 05:46:56;;;;;;;0.00;0.00;;;8.00;99.90;;;;;;5051932;28;20052;-62
2022/04/24 05:49:22;;;;;;;0.10;0.10;;;8.20;99.90;;;;;;5056011;28;20086;-62
2022/04/24 05:51:47;;;;;;;0.00;0.00;;;8.40;99.90;;;;;;5039561;28;20043;-63
2022/04/24 05:54:13;;;;;;;0.00;0.00;;;8.60;99.90;;;;;;5040543;28;20045;-62
2022/04/24 05:56:39;;;;;;;0.00;0.00;;;8.70;99.90;;;;;;5041028;28;20041;-65
2022/04/24 05:59:05;;;;;;;0.00;0.00;;;8.70;99.90;;;;;;5039645;28;20049;-62
2022/04/24 06:01:31;;;;;;;0.00;0.00;;;8.70;99.90;;;;;;5038448;28;20053;-63
2022/04/24 06:03:56;;;;;;;0.28;0.10;;;8.80;99.90;;;;;;5040783;28;20123;-62
2022/04/24 06:06:22;;;;;;;0.00;0.00;;;9.20;99.90;;;;;;5039445;28;20132;-62
2022/04/24 06:08:48;;;;;;;0.00;0.00;;;8.90;99.90;;;;;;5040504;28;20059;-62
2022/04/24 06:11:13;;;;;;;0.00;0.00;;;8.90;99.90;;;;;;5039732;28;20044;-62
2022/04/24 06:13:39;;;;;;;0.00;0.00;;;9.00;99.90;;;;;;5039549;28;20527;-62
2022/04/24 06:16:05;;;;;;;0.00;0.00;;;9.10;99.90;;;;;;5039762;28;20049;-63
2022/04/24 06:18:31;;;;;;;0.00;0.00;;;9.40;99.90;;;;;;5038890;28;20036;-62
2022/04/24 06:20:57;;;;;;;0.00;0.00;;;10.00;99.90;;;;;;5040004;28;20095;-63
2022/04/24 06:23:24;;;;;;;0.00;0.00;;;10.30;99.90;;;;;;5040081;28;20056;-63
2022/04/24 06:25:50;;;;;;;0.00;0.00;;;10.50;99.90;;;;;;5040866;28;20132;-63
2022/04/24 06:28:16;;;;;;;0.00;0.00;;;10.70;99.90;;;;;;5039554;28;20120;-62
2022/04/24 06:30:41;;;;;;;0.00;0.00;;;10.90;99.90;;;;;;5040528;28;20125;-63
2022/04/24 06:33:11;;;;;;;0.00;0.00;;;11.20;99.90;;;;;;5040706;28;20084;-63
2022/04/24 06:35:37;;;;;;;0.00;0.00;;;11.30;99.90;;;;;;5038141;28;20051;-63
2022/04/24 06:38:04;;;;;;;0.00;0.00;;;11.30;99.90;;;;;;5044037;28;20543;-62
2022/04/24 06:40:30;;;;;;;0.00;0.00;;;11.40;99.90;;;;;;5043958;28;20323;-62
2022/04/24 06:42:57;;;;;;;0.00;0.00;;;11.40;99.90;;;;;;5044472;28;20514;-63
2022/04/24 06:45:31;;;;;;;0.00;0.00;;;11.50;99.90;;;;;;5045724;28;20033;-62
2022/04/24 06:48:05;;;;;;;0.00;0.00;;;11.70;99.90;;;;;;5053240;28;20041;-62
2022/04/24 06:50:31;;;;;;;0.28;0.28;;;11.80;99.90;;;;;;5042944;28;20041;-63
2022/04/24 06:53:06;;;;;;;0.03;0.03;;;11.90;99.90;;;;;;5042108;28;20079;-63
2022/04/24 06:55:34;;;;;;;0.00;0.00;;;12.00;99.90;;;;;;5043396;28;20131;-63
2022/04/24 06:58:00;;;;;;;0.00;0.00;;;12.20;99.90;;;;;;5044039;28;20051;-62
2022/04/24 07:00:28;;;;;;;0.00;0.00;;;12.20;99.90;;;;;;5043165;28;20036;-62
2022/04/24 07:02:54;;;;;;;0.00;0.00;;;12.00;99.90;;;;;;5043697;28;20052;-62
2022/04/24 07:05:21;;;;;;;0.00;0.00;;;11.70;99.90;;;;;;5042876;28;20472;-62
2022/04/24 07:07:47;;;;;;;0.00;0.00;;;11.20;99.90;;;;;;5058770;28;20073;-63
2022/04/24 07:10:13;;;;;;;0.00;0.00;;;11.10;99.90;;;;;;5059081;28;20538;-62
2022/04/24 07:12:45;;;;;;;0.00;0.00;;;11.40;99.90;;;;;;5044074;28;20115;-63
2022/04/24 07:15:11;;;;;;;0.00;0.00;;;11.90;99.90;;;;;;5043559;28;20044;-62
2022/04/24 07:17:36;;;;;;;0.00;0.00;;;12.40;99.90;;;;;;5043497;28;20041;-62
2022/04/24 07:20:02;;;;;;;0.00;0.00;;;12.70;99.90;;;;;;5043142;28;20129;-62
2022/04/24 07:22:28;;;;;;;0.00;0.00;;;12.80;99.90;;;;;;5043021;28;20037;-62
2022/04/24 07:24:53;;;;;;;0.00;0.00;;;12.90;99.90;;;;;;5041614;28;20037;-62
2022/04/24 07:27:20;;;;;;;0.00;0.00;;;13.00;99.90;;;;;;5043077;28;20042;-62
2022/04/24 07:29:46;;;;;;;0.00;0.00;;;13.30;99.90;;;;;;5043473;28;20454;-61
2022/04/24 07:32:11;;;;;;;0.00;0.00;;;13.70;99.90;;;;;;5043257;28;20049;-61
2022/04/24 07:34:37;;;;;;;0.00;0.00;;;13.50;99.90;;;;;;5042092;28;20048;-62
2022/04/24 07:37:03;;;;;;;0.00;0.00;;;13.60;99.90;;;;;;5041707;28;20167;-62
2022/04/24 07:39:31;;;;;;;0.00;0.00;;;13.60;99.90;;;;;;5042842;28;20048;-61
2022/04/24 07:41:56;;;;;;;0.00;0.00;;;13.70;99.90;;;;;;5042787;28;20415;-62
2022/04/24 07:44:22;;;;;;;0.00;0.00;;;13.80;99.90;;;;;;5043067;28;20057;-63
2022/04/24 07:46:47;;;;;;;0.00;0.00;;;14.20;99.90;;;;;;5054071;28;20046;-62
2022/04/24 07:49:13;;;;;;;0.00;0.00;;;13.20;99.90;;;;;;5040261;28;20411;-62
2022/04/24 07:51:39;;;;;;;0.00;0.00;;;13.30;99.90;;;;;;5042676;28;20174;-62
2022/04/24 07:54:04;;;;;;;0.00;0.00;;;13.60;99.90;;;;;;5042154;28;20675;-62
2022/04/24 07:56:30;;;;;;;0.00;0.00;;;13.80;99.90;;;;;;5042571;28;20104;-63
2022/04/24 07:58:55;;;;;;;0.00;0.00;;;14.10;99.90;;;;;;5042595;28;20040;-63
2022/04/24 08:01:21;;;;;;;0.00;0.00;;;14.30;99.90;;;;;;5041688;28;20045;-62
2022/04/24 08:03:47;;;;;;;0.00;0.00;;;14.40;99.90;;;;;;5042617;28;20049;-61
2022/04/24 08:06:13;;;;;;;0.10;0.10;;;14.50;99.90;;;;;;5041813;28;20499;-61
2022/04/24 08:08:39;;;;;;;0.00;0.00;;;14.50;99.90;;;;;;5042372;28;20120;-61
2022/04/24 08:11:04;;;;;;;0.00;0.00;;;14.60;99.90;;;;;;5042665;28;20044;-60
2022/04/24 08:13:30;;;;;;;0.00;0.00;;;14.90;99.90;;;;;;5040612;28;20053;-62
2022/04/24 08:15:57;;;;;;;0.00;0.00;;;14.90;99.90;;;;;;5041832;28;20057;-65
2022/04/24 08:18:23;;;;;;;0.00;0.00;;;14.90;99.90;;;;;;5040794;28;20080;-64
2022/04/24 08:20:48;;;;;;;0.10;0.10;;;14.90;99.90;;;;;;5039413;28;20075;-66
2022/04/24 08:23:15;;;;;;;0.00;0.00;;;14.70;99.90;;;;;;5041743;28;20052;-64
2022/04/24 08:25:41;;;;;;;0.00;0.00;;;15.00;99.90;;;;;;5042173;28;20389;-65
2022/04/24 08:28:09;;;;;;;0.00;0.00;;;15.00;99.90;;;;;;5042169;28;20048;-65
2022/04/24 08:30:38;;;;;;;0.00;0.00;;;15.10;99.90;;;;;;5040790;28;20089;-65
2022/04/24 08:33:04;;;;;;;0.00;0.00;;;15.20;99.90;;;;;;5041181;28;20044;-66
2022/04/24 08:35:30;;;;;;;0.30;0.28;;;15.20;99.90;;;;;;5039572;28;20504;-65
2022/04/24 08:37:56;;;;;;;0.00;0.00;;;15.20;99.90;;;;;;5041577;28;20052;-65
2022/04/24 08:40:24;;;;;;;0.00;0.00;;;15.50;99.90;;;;;;5041122;28;20095;-65
2022/04/24 08:42:51;;;;;;;0.00;0.00;;;15.60;99.90;;;;;;5041243;28;20052;-65
2022/04/24 08:45:17;;;;;;;0.00;0.00;;;15.70;99.90;;;;;;5042306;28;20055;-64
2022/04/24 08:47:44;;;;;;;0.00;0.00;;;16.00;99.90;;;;;;5050519;28;20041;-64
2022/04/24 08:50:11;;;;;;;0.00;0.00;;;15.80;99.90;;;;;;5040397;28;20041;-65
2022/04/24 08:52:37;;;;;;;0.10;0.10;;;15.70;99.90;;;;;;5041182;28;20047;-65
2022/04/24 08:55:03;;;;;;;0.00;0.00;;;15.80;99.90;;;;;;5041618;28;20094;-64
2022/04/24 08:57:32;;;;;;;0.00;0.00;;;15.70;99.90;;;;;;5041245;28;20080;-64
2022/04/24 08:59:59;;;;;;;0.00;0.00;;;16.00;99.90;;;;;;5040184;28;20133;-65
2022/04/24 09:02:26;;;;;;;0.00;0.00;;;16.10;99.90;;;;;;5040713;28;20060;-64
2022/04/24 09:04:53;;;;;;;0.13;0.13;;;16.20;99.90;;;;;;5040401;28;20615;-66
2022/04/24 09:07:19;;;;;;;0.00;0.00;;;16.10;99.90;;;;;;5040597;28;20041;-64
2022/04/24 09:09:47;;;;;;;0.00;0.00;;;16.10;99.90;;;;;;5040887;28;20438;-64
2022/04/24 09:12:12;;;;;;;0.00;0.00;;;16.30;99.90;;;;;;5041241;28;20041;-63
2022/04/24 09:14:38;;;;;;;0.00;0.00;;;16.00;99.90;;;;;;5040155;28;20059;-65
2022/04/24 09:17:16;;;;;;;0.00;0.00;;;16.10;99.90;;;;;;5039924;28;20266;-65
2022/04/24 09:19:42;;;;;;;0.00;0.00;;;16.20;99.90;;;;;;5040232;28;20045;-65
2022/04/24 09:22:09;;;;;;;0.00;0.00;;;16.60;99.90;;;;;;5041340;28;20045;-65
2022/04/24 09:24:59;;;;;;;0.00;0.00;;;16.50;99.90;;;;;;5040795;28;20056;-65
2022/04/24 09:27:34;;;;;;;0.00;0.00;;;16.60;99.90;;;;;;5040472;28;20419;-65
2022/04/24 09:30:01;;;;;;;0.00;0.00;;;16.60;99.90;;;;;;5040487;28;20078;-65
2022/04/24 09:32:29;;;;;;;0.00;0.00;;;16.80;99.90;;;;;;5038924;28;20541;-65
2022/04/24 09:34:55;;;;;;;0.00;0.00;;;16.90;99.90;;;;;;5039643;28;20499;-65
2022/04/24 09:37:22;;;;;;;0.00;0.00;;;16.70;99.90;;;;;;5039574;28;20056;-64
2022/04/24 09:39:48;;;;;;;0.00;0.00;;;16.90;99.90;;;;;;5040567;28;20094;-65
2022/04/24 09:42:17;;;;;;;0.00;0.00;;;17.20;99.90;;;;;;5039191;28;20063;-65
2022/04/24 09:44:45;;;;;;;0.00;0.00;;;17.40;99.90;;;;;;5038515;28;20052;-65
2022/04/24 09:47:13;;;;;;;0.00;0.00;;;17.60;99.90;;;;;;5050916;28;20090;-65
2022/04/24 09:49:46;;;;;;;0.00;0.00;;;17.60;99.90;;;;;;5040194;28;20056;-64
2022/04/24 09:52:18;;;;;;;0.00;0.00;;;17.40;99.90;;;;;;5039666;28;20090;-64
2022/04/24 09:54:45;;;;;;;0.00;0.00;;;17.70;99.90;;;;;;5040502;28;20388;-64
2022/04/24 09:57:13;;;;;;;0.00;0.00;;;17.50;99.90;;;;;;5039964;28;20068;-65
2022/04/24 09:59:41;;;;;;;0.00;0.00;;;17.50;99.90;;;;;;5039814;28;20033;-65
2022/04/24 10:02:08;;;;;;;0.00;0.00;;;17.70;99.90;;;;;;5040229;28;20547;-65
2022/04/24 10:04:35;;;;;;;0.00;0.00;;;17.80;99.90;;;;;;5039110;28;20053;-65
2022/04/24 10:07:09;;;;;;;0.00;0.00;;;17.70;99.90;;;;;;5040717;28;20419;-66
2022/04/24 10:09:38;;;;;;;0.00;0.00;;;17.60;99.90;;;;;;5039091;28;20487;-65
2022/04/24 10:12:14;;;;;;;0.00;0.00;;;17.60;99.90;;;;;;5042529;28;20048;-65
2022/04/24 10:14:51;;;;;;;0.00;0.00;;;17.60;99.90;;;;;;5042361;28;20106;-65
2022/04/24 10:17:35;;;;;;;0.00;0.00;;;17.90;99.90;;;;;;5043486;28;20040;-64
2022/04/24 10:20:28;;;;;;;0.15;0.15;;;18.10;99.90;;;;;;5042786;28;20048;-65
2022/04/24 10:22:55;;;;;;;0.08;0.08;;;18.00;99.90;;;;;;5044586;28;20117;-64
2022/04/24 10:25:35;;;;;;;0.00;0.00;;;18.10;99.90;;;;;;5043308;28;20113;-65
2022/04/24 10:28:18;;;;;;;0.00;0.00;;;18.00;99.90;;;;;;5044038;28;20049;-64
2022/04/24 10:30:57;;;;;;;0.00;0.00;;;17.80;99.90;;;;;;5059087;28;20036;-65
2022/04/24 10:33:25;;;;;;;0.00;0.00;;;17.70;99.90;;;;;;5042209;28;20040;-64
2022/04/24 10:36:02;;;;;;;0.20;0.20;;;17.80;99.90;;;;;;5043129;28;20039;-64
2022/04/24 10:38:30;;;;;;;0.00;0.00;;;18.00;99.90;;;;;;5042043;28;20041;-64
2022/04/24 10:41:06;;;;;;;0.00;0.00;;;18.20;99.90;;;;;;5043031;28;20048;-65
2022/04/24 10:43:44;;;;;;;0.00;0.00;;;17.90;99.90;;;;;;5041460;28;20124;-65
2022/04/24 10:46:24;;;;;;;0.00;0.00;;;18.00;99.90;;;;;;5049727;28;20045;-64
2022/04/24 10:48:50;;;;;;;0.00;0.00;;;18.30;99.90;;;;;;5044380;28;20084;-64
2022/04/24 10:51:29;;;;;;;0.00;0.00;;;17.60;99.90;;;;;;5043329;28;20491;-64
2022/04/24 10:54:16;;;;;;;0.00;0.00;;;17.80;99.90;;;;;;5042272;28;20655;-65
2022/04/24 10:56:43;;;;;;;0.00;0.00;;;17.90;99.90;;;;;;5043575;28;20753;-65
2022/04/24 10:59:19;;;;;;;0.20;0.20;;;17.90;99.90;;;;;;5043768;28;20043;-65
2022/04/24 11:01:50;;;;;;;0.00;0.00;;;18.10;99.90;;;;;;5042800;28;20056;-64
2022/04/24 11:04:17;;;;;;;0.00;0.00;;;17.80;99.90;;;;;;5041139;28;20388;-64
2022/04/24 11:07:00;;;;;;;0.00;0.00;;;17.90;99.90;;;;;;5043456;28;20060;-65
2022/04/24 11:09:36;;;;;;;0.00;0.00;;;18.00;99.90;;;;;;5043150;28;20045;-64
2022/04/24 11:12:07;;;;;;;0.00;0.00;;;18.40;99.90;;;;;;5041801;28;20063;-65
2022/04/24 11:14:34;;;;;;;0.00;0.00;;;18.60;99.90;;;;;;5042252;28;20474;-65
2022/04/24 11:17:02;;;;;;;0.00;0.00;;;18.50;99.90;;;;;;5042899;28;20476;-65
2022/04/24 11:19:34;;;;;;;0.00;0.00;;;18.20;99.90;;;;;;5042070;28;20151;-64
2022/04/24 11:22:02;;;;;;;0.00;0.00;;;17.70;99.90;;;;;;5042674;28;20098;-65
2022/04/24 11:24:33;;;;;;;0.00;0.00;;;17.50;99.90;;;;;;5040421;28;20049;-64
2022/04/24 11:27:11;;;;;;;0.00;0.00;;;17.80;99.90;;;;;;5042079;28;20041;-65
2022/04/24 11:29:37;;;;;;;0.00;0.00;;;17.90;99.90;;;;;;5042911;28;20510;-64
2022/04/24 11:32:07;;;;;;;0.00;0.00;;;18.10;99.90;;;;;;5043244;28;20124;-65
2022/04/24 11:34:33;;;;;;;0.00;0.00;;;18.30;99.90;;;;;;5041909;28;20765;-65
2022/04/24 11:37:00;;;;;;;0.00;0.00;;;18.20;99.90;;;;;;5042666;28;20845;-65
2022/04/24 11:39:26;;;;;;;0.00;0.00;;;17.90;99.90;;;;;;5042493;28;20041;-65
2022/04/24 11:41:54;;;;;;;0.00;0.00;;;18.10;99.90;;;;;;5041690;28;20056;-65
2022/04/24 11:50:13;;;;;;;0.00;0.00;;;18.30;99.90;;;;;;5042086;28;20049;-65
2022/04/24 11:52:50;;;;;;;0.00;0.00;;;18.40;99.90;;;;;;5042864;28;20045;-65
2022/04/24 11:55:19;;;;;;;0.00;0.00;;;18.50;99.90;;;;;;5042174;28;20045;-63
2022/04/24 11:57:59;;;;;;;0.00;0.00;;;18.20;99.90;;;;;;5042502;28;20044;-64
2022/04/24 12:00:38;;;;;;;0.00;0.00;;;18.10;99.90;;;;;;5041335;28;20102;-65
2022/04/24 12:03:07;;;;;;;0.00;0.00;;;18.30;99.90;;;;;;5042305;28;20124;-65
2022/04/24 12:05:33;;;;;;;0.00;0.00;;;18.50;99.90;;;;;;5022986;28;20576;-65
2022/04/24 12:08:00;;;;;;;0.05;0.05;;;18.70;99.90;;;;;;5042418;28;20045;-65
2022/04/24 12:10:27;;;;;;;0.00;0.00;;;18.20;99.90;;;;;;5042110;28;20543;-64
2022/04/24 12:12:53;;;;;;;0.00;0.00;;;17.90;99.90;;;;;;5042092;28;20049;-65
2022/04/24 12:15:22;;;;;;;0.00;0.00;;;17.80;99.90;;;;;;5040963;28;20073;-64
2022/04/24 12:17:56;;;;;;;0.00;0.00;;;17.50;99.90;;;;;;5041915;28;20044;-64
2022/04/24 12:20:40;;;;;;;0.00;0.00;;;17.40;99.90;;;;;;5041323;28;20279;-65
2022/04/24 12:23:14;;;;;;;0.00;0.00;;;17.70;99.90;;;;;;5042569;28;20056;-65
2022/04/24 12:25:47;;;;;;;;;;;17.90;99.90;;;;;;5042397;28;20045;-65
2022/04/24 12:28:31;;;;;;;0.00;0.00;;;18.00;99.90;;;;;;5041306;28;19920;-64
2022/04/24 12:30:57;;;;;;;0.00;0.00;;;17.80;99.90;;;;;;5040469;28;20044;-65
2022/04/24 12:33:23;;;;;;;0.00;0.00;;;17.20;99.90;;;;;;5040785;28;20067;-65
2022/04/24 12:35:49;;;;;;;0.00;0.00;;;17.00;99.90;;;;;;5056103;28;20503;-64
2022/04/24 12:38:16;;;;;;;0.00;0.00;;;17.00;99.90;;;;;;5041550;28;20049;-64
2022/04/24 12:40:53;;;;;;;0.00;0.00;;;17.00;99.90;;;;;;5057242;28;20041;-65
2022/04/24 12:43:31;;;;;;;0.08;0.08;;;17.20;99.90;;;;;;5039641;28;20052;-64
2022/04/24 12:45:58;;;;;;;0.00;0.00;;;17.40;99.90;;;;;;5045412;28;20052;-64
2022/04/24 12:48:24;;;;;;;0.00;0.00;;;17.30;99.90;;;;;;5046846;28;20119;-64
2022/04/24 12:50:51;;;;;;;0.00;0.00;;;17.10;99.90;;;;;;5039824;28;20102;-65
2022/04/24 12:53:19;;;;;;;0.00;0.00;;;17.30;99.90;;;;;;5040684;28;20041;-64
2022/04/24 12:55:46;;;;;;;0.00;0.00;;;17.50;99.90;;;;;;5039013;28;20041;-65
2022/04/24 12:58:14;;;;;;;0.00;0.00;;;17.60;99.90;;;;;;5039668;28;20454;-65
2022/04/24 13:00:41;;;;;;;0.00;0.00;;;17.60;99.90;;;;;;5041283;28;20037;-64